Time;durP1;ratioP1;P1;durP2;ratioP2;P2;SDS_P1;SDS_P2;PMS_P1;PMS_P2;Temp;Humidity;BMP_temperature;BMP_pressure;BME280_temperature;BME280_humidity;BME280_pressure;Samples;Min_cycle;Max_cycle;Signal;HPM_P1;HPM_P2
2024/03/16 00:00:07;;;;;;;96.72;91.90;;;14.00;99.90;;;;;;5052844;28;20395;-76
2024/03/16 00:02:34;;;;;;;57.00;54.28;;;14.00;99.90;;;;;;5041168;28;20041;-76
2024/03/16 00:05:00;;;;;;;56.63;53.88;;;14.00;99.90;;;;;;5052214;28;20060;-75
2024/03/16 00:07:27;;;;;;;49.47;46.58;;;14.00;99.90;;;;;;5049144;28;20032;-76
2024/03/16 00:09:53;;;;;;;36.08;34.13;;;14.10;99.90;;;;;;5033399;28;20049;-76
2024/03/16 00:12:19;;;;;;;53.47;50.90;;;14.10;99.90;;;;;;5046985;28;20120;-76
2024/03/16 00:14:48;;;;;;;37.38;35.47;;;14.00;99.90;;;;;;5049918;28;20048;-76
2024/03/16 00:17:14;;;;;;;38.72;36.83;;;14.00;99.90;;;;;;5035685;28;20522;-76
2024/03/16 00:19:40;;;;;;;44.15;42.00;;;14.10;99.90;;;;;;5052476;28;20040;-76
2024/03/16 00:22:06;;;;;;;47.58;45.20;;;14.10;99.90;;;;;;5052415;28;20040;-75
2024/03/16 00:24:32;;;;;;;57.10;54.25;;;14.10;99.90;;;;;;5051505;28;20049;-76
2024/03/16 00:26:58;;;;;;;52.78;50.22;;;14.10;99.90;;;;;;5038142;28;20037;-76
2024/03/16 00:29:24;;;;;;;55.78;53.00;;;14.10;99.90;;;;;;5046773;28;20044;-76
2024/03/16 00:31:51;;;;;;;42.40;40.33;;;14.10;99.90;;;;;;5051502;28;20041;-76
2024/03/16 00:34:17;;;;;;;54.25;51.65;;;14.10;99.90;;;;;;5035490;28;20045;-76
2024/03/16 00:36:43;;;;;;;46.70;44.35;;;14.10;99.90;;;;;;5047006;28;20038;-76
2024/03/16 00:39:15;;;;;;;55.33;52.63;;;14.10;99.90;;;;;;5039767;28;20040;-76
2024/03/16 00:41:42;;;;;;;51.10;48.63;;;14.10;99.90;;;;;;5052039;28;20044;-76
2024/03/16 00:44:08;;;;;;;46.13;43.88;;;14.10;99.90;;;;;;5044143;28;20048;-76
2024/03/16 00:46:35;;;;;;;53.33;50.72;;;14.10;99.90;;;;;;5050400;28;20479;-76
2024/03/16 00:49:02;;;;;;;63.10;60.03;;;14.10;99.90;;;;;;5051400;28;20044;-76
2024/03/16 00:51:28;;;;;;;44.85;42.63;;;14.10;99.90;;;;;;5040512;28;20054;-76
2024/03/16 00:53:55;;;;;;;31.83;30.27;;;14.20;99.90;;;;;;5038725;28;20029;-76
2024/03/16 00:56:21;;;;;;;33.80;32.05;;;14.20;99.90;;;;;;5038922;28;20056;-76
2024/03/16 00:58:48;;;;;;;35.13;33.33;;;14.20;99.90;;;;;;5045709;28;20033;-76
2024/03/16 01:01:14;;;;;;;34.28;32.50;;;14.20;99.90;;;;;;5029897;28;20049;-76
2024/03/16 01:03:40;;;;;;;34.22;32.58;;;14.20;99.90;;;;;;5045465;28;20487;-75
2024/03/16 01:06:06;;;;;;;35.90;34.13;;;14.20;99.90;;;;;;5049784;28;20056;-75
2024/03/16 01:08:32;;;;;;;36.03;34.30;;;14.20;99.90;;;;;;5051880;28;20033;-75
2024/03/16 01:10:58;;;;;;;34.50;32.85;;;14.10;99.90;;;;;;5041010;28;20036;-76
2024/03/16 01:13:24;;;;;;;31.35;29.83;;;14.20;99.90;;;;;;5038314;28;20033;-75
2024/03/16 01:15:51;;;;;;;32.10;30.55;;;14.10;99.90;;;;;;5046638;28;20490;-76
2024/03/16 01:18:18;;;;;;;30.48;28.92;;;14.10;99.90;;;;;;5050380;28;20040;-75
2024/03/16 01:20:44;;;;;;;37.58;35.78;;;14.20;99.90;;;;;;5050002;28;20041;-76
2024/03/16 01:23:12;;;;;;;32.90;31.27;;;14.20;99.90;;;;;;5049957;28;20033;-76
2024/03/16 01:25:39;;;;;;;34.42;32.80;;;14.20;99.90;;;;;;5044222;28;20033;-76
2024/03/16 01:28:05;;;;;;;43.83;40.88;;;14.10;99.90;;;;;;5050864;28;20372;-76
2024/03/16 01:30:31;;;;;;;41.20;39.20;;;14.10;99.90;;;;;;5048675;28;20048;-75
2024/03/16 01:32:58;;;;;;;29.15;27.75;;;14.10;99.90;;;;;;5050657;28;20384;-75
2024/03/16 01:35:24;;;;;;;32.45;30.42;;;14.10;99.90;;;;;;5050053;28;20031;-75
2024/03/16 01:37:51;;;;;;;34.63;32.85;;;14.10;99.90;;;;;;5035000;28;20041;-75
2024/03/16 01:40:24;;;;;;;38.85;37.00;;;14.10;99.90;;;;;;5045535;28;20028;-75
2024/03/16 01:45:06;;;;;;;30.95;29.48;;;14.00;99.90;;;;;;5123513;27;20485;-76
2024/03/16 01:47:33;;;;;;;29.98;28.52;;;13.90;99.90;;;;;;5096898;28;20025;-75
2024/03/16 01:49:59;;;;;;;29.33;27.92;;;13.80;99.90;;;;;;5088190;28;20412;-76
2024/03/16 01:52:28;;;;;;;30.42;28.95;;;13.80;99.90;;;;;;5070906;28;20394;-75
2024/03/16 01:54:55;;;;;;;31.40;29.88;;;13.80;99.90;;;;;;5084784;28;20040;-75
2024/03/16 01:57:21;;;;;;;27.38;26.05;;;13.70;99.90;;;;;;5085446;28;20024;-76
2024/03/16 01:59:48;;;;;;;26.35;25.08;;;13.80;99.90;;;;;;5105304;28;20036;-76
2024/03/16 02:02:32;;;;;;;24.88;23.67;;;13.90;99.90;;;;;;5065667;28;20048;-76
2024/03/16 02:04:58;;;;;;;26.30;24.92;;;13.80;99.90;;;;;;5064060;28;20049;-75
2024/03/16 02:07:26;;;;;;;37.95;35.83;;;13.80;99.90;;;;;;5068031;28;20025;-74
2024/03/16 02:09:52;;;;;;;35.78;34.05;;;13.90;99.90;;;;;;5065843;28;20232;-75
2024/03/16 02:12:18;;;;;;;62.47;59.47;;;13.80;99.90;;;;;;5067620;28;20059;-75
2024/03/16 02:14:44;;;;;;;46.38;44.17;;;13.70;99.90;;;;;;5069178;28;20024;-75
2024/03/16 02:17:11;;;;;;;35.63;33.75;;;13.70;99.90;;;;;;5063250;28;20059;-75
2024/03/16 02:19:40;;;;;;;46.50;42.97;;;13.70;99.90;;;;;;5064651;28;20032;-75
2024/03/16 02:22:06;;;;;;;55.35;52.47;;;13.70;99.90;;;;;;5053369;28;20044;-75
2024/03/16 02:24:35;;;;;;;52.55;49.83;;;13.70;99.90;;;;;;5048893;28;20041;-75
2024/03/16 02:27:01;;;;;;;57.65;54.90;;;13.60;99.90;;;;;;5062378;28;20401;-75
2024/03/16 02:29:28;;;;;;;72.97;69.45;;;13.60;99.90;;;;;;5083422;28;20033;-74
2024/03/16 02:31:54;;;;;;;74.18;70.43;;;13.60;99.90;;;;;;5063603;28;20037;-74
2024/03/16 02:34:21;;;;;;;65.80;62.60;;;13.60;99.90;;;;;;5059859;28;20362;-75
2024/03/16 02:36:47;;;;;;;51.60;49.15;;;13.60;99.90;;;;;;5068596;28;20666;-75
2024/03/16 02:39:13;;;;;;;57.53;54.63;;;13.60;99.90;;;;;;5047675;28;20366;-75
2024/03/16 02:41:40;;;;;;;40.97;39.05;;;13.50;99.90;;;;;;5047243;28;20025;-75
2024/03/16 02:44:06;;;;;;;36.25;34.55;;;13.50;99.90;;;;;;5049067;28;20056;-75
2024/03/16 02:46:32;;;;;;;44.63;42.33;;;13.50;99.90;;;;;;5056193;28;20036;-75
2024/03/16 02:48:58;;;;;;;43.22;41.15;;;13.60;99.90;;;;;;5063136;28;20029;-75
2024/03/16 02:51:24;;;;;;;57.60;54.80;;;13.60;99.90;;;;;;5070176;28;20041;-75
2024/03/16 02:53:52;;;;;;;37.25;35.40;;;13.60;99.90;;;;;;5062048;28;20020;-75
2024/03/16 02:56:19;;;;;;;39.15;37.25;;;13.70;99.90;;;;;;5061697;28;20060;-75
2024/03/16 02:58:45;;;;;;;45.10;41.75;;;13.70;99.90;;;;;;5052133;28;20041;-75
2024/03/16 03:01:11;;;;;;;37.83;35.47;;;13.60;99.90;;;;;;5051351;28;20421;-75
2024/03/16 03:03:38;;;;;;;42.42;40.38;;;13.60;99.90;;;;;;5031678;28;20049;-75
2024/03/16 03:06:04;;;;;;;51.72;49.25;;;13.60;99.90;;;;;;5027920;28;20041;-75
2024/03/16 03:08:32;;;;;;;42.05;40.05;;;13.70;99.90;;;;;;5051554;28;20362;-74
2024/03/16 03:10:58;;;;;;;32.78;31.20;;;13.80;99.90;;;;;;5037802;28;20042;-74
2024/03/16 03:13:24;;;;;;;34.42;32.78;;;13.80;99.90;;;;;;5048578;28;20049;-75
2024/03/16 03:15:50;;;;;;;28.42;27.05;;;13.70;99.90;;;;;;5049246;28;20036;-75
2024/03/16 03:18:16;;;;;;;33.10;30.65;;;13.70;99.90;;;;;;5050972;28;20041;-75
2024/03/16 03:20:45;;;;;;;29.80;28.35;;;13.70;99.90;;;;;;5047005;28;20476;-74
2024/03/16 03:23:11;;;;;;;29.90;28.45;;;13.70;99.90;;;;;;5034318;28;20038;-75
2024/03/16 03:25:37;;;;;;;30.65;29.20;;;13.70;99.90;;;;;;5048954;28;20040;-74
2024/03/16 03:28:03;;;;;;;28.20;26.85;;;13.70;99.90;;;;;;5032814;28;20026;-75
2024/03/16 03:30:29;;;;;;;31.13;29.48;;;13.70;99.90;;;;;;5048509;28;20033;-75
2024/03/16 03:32:55;;;;;;;36.58;34.78;;;13.70;99.90;;;;;;5043784;28;20025;-75
2024/03/16 03:35:21;;;;;;;27.55;26.23;;;13.70;99.90;;;;;;5041842;28;20548;-75
2024/03/16 03:37:47;;;;;;;30.40;29.00;;;13.70;99.90;;;;;;5038027;28;20036;-75
2024/03/16 03:40:14;;;;;;;25.73;24.50;;;13.70;99.90;;;;;;5052124;28;20025;-74
2024/03/16 03:42:46;;;;;;;32.28;30.75;;;13.70;99.90;;;;;;5047017;28;20045;-74
2024/03/16 03:45:24;;;;;;;29.77;28.38;;;13.70;99.90;;;;;;5060119;28;20060;-74
2024/03/16 03:48:04;;;;;;;28.80;27.38;;;13.70;99.90;;;;;;5034861;28;20052;-75
2024/03/16 03:50:32;;;;;;;31.80;30.30;;;13.70;99.90;;;;;;5036088;28;20045;-75
2024/03/16 03:53:01;;;;;;;32.17;30.67;;;13.60;99.90;;;;;;5068059;28;20025;-74
2024/03/16 03:55:27;;;;;;;29.98;28.58;;;13.50;99.90;;;;;;5066241;28;20053;-75
2024/03/16 03:57:53;;;;;;;27.17;25.92;;;13.50;99.90;;;;;;5047164;28;20032;-75
2024/03/16 04:00:19;;;;;;;27.08;25.80;;;13.60;99.90;;;;;;5049386;28;20036;-75
2024/03/16 04:02:45;;;;;;;26.85;25.58;;;13.60;99.90;;;;;;5052112;28;20032;-75
2024/03/16 04:05:12;;;;;;;25.20;24.00;;;13.60;99.90;;;;;;5031600;28;20041;-75
2024/03/16 04:07:38;;;;;;;25.38;24.17;;;13.70;99.90;;;;;;5044112;28;20028;-75
2024/03/16 04:10:06;;;;;;;25.50;24.30;;;13.70;99.90;;;;;;5052948;28;20045;-75
2024/03/16 04:12:32;;;;;;;24.42;23.27;;;13.70;99.90;;;;;;5033350;28;20021;-75
2024/03/16 04:14:58;;;;;;;30.13;28.70;;;13.70;99.90;;;;;;5046044;28;20044;-75
2024/03/16 04:17:24;;;;;;;33.40;31.17;;;13.70;99.90;;;;;;5034168;28;20030;-75
2024/03/16 04:19:51;;;;;;;28.70;27.35;;;13.80;99.90;;;;;;5038672;28;20029;-75
2024/03/16 04:22:17;;;;;;;27.15;25.88;;;13.70;99.90;;;;;;5058080;28;20041;-75
2024/03/16 04:24:44;;;;;;;27.30;25.95;;;13.70;99.90;;;;;;5047819;28;20044;-75
2024/03/16 04:27:10;;;;;;;23.85;22.73;;;13.60;99.90;;;;;;5051743;28;20038;-74
2024/03/16 04:29:36;;;;;;;26.00;24.75;;;13.60;99.90;;;;;;5036766;28;20021;-74
2024/03/16 04:32:02;;;;;;;23.50;22.40;;;13.50;99.90;;;;;;5045058;28;20438;-74
2024/03/16 04:34:28;;;;;;;26.52;25.25;;;13.60;99.90;;;;;;5049756;28;20048;-75
2024/03/16 04:36:54;;;;;;;25.25;24.05;;;13.60;99.90;;;;;;5039805;28;20469;-77
2024/03/16 04:39:21;;;;;;;25.50;24.30;;;13.60;99.90;;;;;;5046296;28;20048;-77
2024/03/16 04:41:50;;;;;;;28.58;27.23;;;13.60;99.90;;;;;;5037460;28;20226;-77
2024/03/16 04:44:16;;;;;;;26.33;25.10;;;13.70;99.90;;;;;;5043594;28;20056;-77
2024/03/16 04:46:42;;;;;;;26.13;24.88;;;13.80;99.90;;;;;;5048139;28;20025;-77
2024/03/16 04:49:08;;;;;;;25.92;24.70;;;13.80;99.90;;;;;;5032319;28;20034;-78
2024/03/16 04:51:35;;;;;;;26.02;24.80;;;13.90;99.90;;;;;;5032628;28;20052;-77
2024/03/16 04:54:01;;;;;;;24.13;23.00;;;13.90;99.90;;;;;;5031331;28;20040;-77
2024/03/16 04:56:30;;;;;;;25.63;24.42;;;13.90;99.90;;;;;;5033110;28;20064;-77
2024/03/16 04:58:56;;;;;;;27.63;26.30;;;13.90;99.90;;;;;;5025528;28;20068;-74
2024/03/16 05:01:22;;;;;;;27.15;25.88;;;13.90;99.90;;;;;;5041279;28;20029;-75
2024/03/16 05:03:48;;;;;;;30.50;29.05;;;13.90;99.90;;;;;;5067404;28;20067;-75
2024/03/16 05:06:14;;;;;;;36.78;34.97;;;14.00;99.90;;;;;;5053253;28;20044;-75
2024/03/16 05:08:40;;;;;;;43.50;41.42;;;13.90;99.90;;;;;;5059039;28;20029;-75
2024/03/16 05:11:06;;;;;;;36.17;34.30;;;13.80;99.90;;;;;;5057449;28;20036;-74
2024/03/16 05:13:33;;;;;;;37.80;36.00;;;13.80;99.90;;;;;;5052194;28;20417;-73
2024/03/16 05:16:08;;;;;;;28.23;26.90;;;13.80;99.90;;;;;;5071620;28;20041;-74
2024/03/16 05:18:34;;;;;;;27.42;26.05;;;13.70;99.90;;;;;;5031798;28;20033;-74
2024/03/16 05:21:01;;;;;;;30.10;28.67;;;13.50;99.90;;;;;;5032352;28;20064;-74
2024/03/16 05:23:27;;;;;;;37.67;35.90;;;13.60;99.90;;;;;;5043057;28;20045;-75
2024/03/16 05:25:53;;;;;;;35.30;33.63;;;13.70;99.90;;;;;;5045743;28;20041;-75
2024/03/16 05:28:19;;;;;;;33.58;31.98;;;13.80;99.90;;;;;;5032172;28;20042;-74
2024/03/16 05:30:46;;;;;;;35.65;33.95;;;13.80;99.90;;;;;;5037280;28;20029;-75
2024/03/16 05:33:12;;;;;;;30.50;29.05;;;13.90;99.90;;;;;;5052152;28;20041;-72
2024/03/16 05:35:40;;;;;;;28.65;27.27;;;13.90;99.90;;;;;;5051740;28;20045;-72
2024/03/16 05:38:06;;;;;;;26.58;25.30;;;13.90;99.90;;;;;;5052341;28;20045;-72
2024/03/16 05:40:32;;;;;;;26.65;25.38;;;13.90;99.90;;;;;;5051272;28;20392;-72
2024/03/16 05:42:59;;;;;;;27.95;26.63;;;13.90;99.90;;;;;;5051472;28;20037;-72
2024/03/16 05:45:25;;;;;;;31.90;30.38;;;14.00;99.90;;;;;;5050386;28;20386;-72
2024/03/16 05:47:51;;;;;;;27.13;25.83;;;14.00;99.90;;;;;;5050986;28;20045;-72
2024/03/16 05:50:18;;;;;;;35.60;33.90;;;14.00;99.90;;;;;;5051864;28;20039;-72
2024/03/16 05:52:44;;;;;;;30.80;29.35;;;14.00;99.90;;;;;;5052290;28;20457;-72
2024/03/16 05:55:11;;;;;;;29.95;28.50;;;14.00;99.90;;;;;;5051934;28;20037;-72
2024/03/16 05:57:37;;;;;;;28.58;27.23;;;14.00;99.90;;;;;;5051752;28;20037;-72
2024/03/16 06:00:13;;;;;;;33.45;31.85;;;14.00;99.90;;;;;;5066601;28;20100;-71
2024/03/16 06:02:40;;;;;;;31.30;29.83;;;14.00;99.90;;;;;;5030911;28;20034;-72
2024/03/16 06:05:06;;;;;;;34.83;32.92;;;14.00;99.90;;;;;;5030826;28;20056;-72
2024/03/16 06:07:35;;;;;;;31.02;29.55;;;14.00;99.90;;;;;;5031959;28;20029;-72
2024/03/16 06:10:02;;;;;;;43.38;41.33;;;14.00;99.90;;;;;;5031913;28;20029;-72
2024/03/16 06:12:30;;;;;;;50.08;47.67;;;14.00;99.90;;;;;;5031939;28;20037;-72
2024/03/16 06:14:59;;;;;;;34.13;32.50;;;14.00;99.90;;;;;;5032089;28;20037;-72
2024/03/16 06:17:25;;;;;;;32.33;30.80;;;14.00;99.90;;;;;;5031456;28;20042;-72
2024/03/16 06:19:53;;;;;;;31.08;29.63;;;14.00;99.90;;;;;;5047460;28;20390;-72
2024/03/16 06:22:20;;;;;;;34.38;32.70;;;14.00;99.90;;;;;;5031483;28;20052;-72
2024/03/16 06:24:47;;;;;;;33.53;31.92;;;14.00;99.90;;;;;;5031787;28;20053;-72
2024/03/16 06:27:18;;;;;;;36.85;35.10;;;13.90;99.90;;;;;;5031959;28;20501;-72
2024/03/16 06:29:52;;;;;;;29.80;28.38;;;13.90;99.90;;;;;;5031193;28;20041;-71
2024/03/16 06:32:21;;;;;;;37.40;35.65;;;13.90;99.90;;;;;;5035192;28;20480;-72
2024/03/16 06:34:50;;;;;;;36.65;34.90;;;13.90;99.90;;;;;;5036028;28;20060;-79
2024/03/16 06:37:19;;;;;;;35.10;33.40;;;14.00;99.90;;;;;;5033819;28;20044;-78
2024/03/16 06:39:48;;;;;;;27.77;26.45;;;14.00;99.90;;;;;;5035278;28;20044;-78
2024/03/16 06:42:14;;;;;;;31.63;30.13;;;14.00;99.90;;;;;;5050116;28;20037;-78
2024/03/16 06:44:40;;;;;;;35.85;34.15;;;14.00;99.90;;;;;;5035157;28;20049;-78
2024/03/16 06:47:06;;;;;;;35.63;33.95;;;14.00;99.90;;;;;;5051546;28;20062;-78
2024/03/16 06:49:32;;;;;;;37.58;35.80;;;14.00;99.90;;;;;;5055214;28;20417;-78
2024/03/16 06:51:58;;;;;;;29.92;28.50;;;14.10;99.90;;;;;;5054992;28;20040;-78
2024/03/16 06:54:27;;;;;;;27.10;25.83;;;14.10;99.90;;;;;;5054560;28;20025;-77
2024/03/16 06:56:54;;;;;;;45.33;43.15;;;13.90;99.90;;;;;;5054512;28;20040;-70
2024/03/16 06:59:20;;;;;;;36.97;35.22;;;14.00;99.90;;;;;;5054676;28;20029;-83
2024/03/16 07:01:46;;;;;;;44.15;42.05;;;14.10;99.90;;;;;;5054079;28;20048;-88
2024/03/16 07:04:13;;;;;;;34.67;33.05;;;14.10;99.90;;;;;;5071569;28;20025;-88
2024/03/16 07:06:39;;;;;;;36.80;35.05;;;14.10;99.90;;;;;;5054851;28;20417;-79
2024/03/16 07:09:10;;;;;;;31.50;30.00;;;14.20;99.90;;;;;;5048492;28;20039;-90
2024/03/16 07:11:36;;;;;;;86.18;81.95;;;14.20;99.90;;;;;;5035914;28;20025;-89
2024/03/16 07:14:02;;;;;;;30.30;28.00;;;14.10;99.90;;;;;;5039241;28;20406;-90
2024/03/16 07:16:28;;;;;;;32.78;31.23;;;14.20;99.90;;;;;;5060393;28;20036;-91
2024/03/16 07:18:54;;;;;;;26.52;25.27;;;14.20;99.90;;;;;;5066830;28;20021;-90
2024/03/16 07:21:21;;;;;;;28.52;27.17;;;14.10;99.90;;;;;;5074478;28;20037;-93
2024/03/16 07:23:50;;;;;;;32.92;31.35;;;14.10;99.90;;;;;;5057820;28;20045;-92
2024/03/16 07:26:16;;;;;;;33.97;32.33;;;14.20;99.90;;;;;;5058766;28;20045;-92
2024/03/16 07:28:43;;;;;;;35.97;33.78;;;14.20;99.90;;;;;;5057759;28;20025;-92
2024/03/16 07:31:09;;;;;;;32.10;30.55;;;14.30;99.90;;;;;;5058887;28;20049;-91
2024/03/16 07:33:35;;;;;;;29.45;28.02;;;14.30;99.90;;;;;;5050488;28;20038;-91
2024/03/16 07:36:03;;;;;;;31.15;29.63;;;14.30;99.90;;;;;;5049181;28;20044;-92
2024/03/16 07:38:30;;;;;;;31.77;30.25;;;14.40;99.90;;;;;;5066821;28;20051;-92
2024/03/16 07:40:56;;;;;;;33.75;32.10;;;14.40;99.90;;;;;;5083763;28;20040;-91
2024/03/16 07:43:22;;;;;;;30.88;29.40;;;14.40;99.90;;;;;;5072902;28;20033;-78
2024/03/16 07:45:49;;;;;;;28.77;27.42;;;14.40;99.90;;;;;;5051256;28;20449;-80
2024/03/16 07:48:15;;;;;;;30.77;29.33;;;14.50;99.90;;;;;;5035054;28;20044;-79
2024/03/16 07:50:41;;;;;;;28.45;26.92;;;14.60;99.90;;;;;;5054913;28;20029;-79
2024/03/16 07:53:07;;;;;;;29.00;27.60;;;14.60;99.90;;;;;;5056648;28;20934;-79
2024/03/16 07:55:33;;;;;;;32.92;31.33;;;14.60;99.90;;;;;;5026294;28;20030;-77
2024/03/16 07:58:00;;;;;;;827.58;758.47;;;14.60;99.90;;;;;;5034075;28;20466;-79
2024/03/16 08:00:26;;;;;;;352.90;332.35;;;14.60;99.90;;;;;;5032978;28;20386;-76
2024/03/16 08:02:52;;;;;;;35.97;33.65;;;14.60;99.90;;;;;;5034009;28;20517;-79
2024/03/16 08:05:18;;;;;;;32.08;30.58;;;14.50;99.90;;;;;;5033693;28;20037;-78
2024/03/16 08:07:47;;;;;;;33.45;31.90;;;14.50;99.90;;;;;;5033753;28;20501;-80
2024/03/16 08:10:13;;;;;;;36.15;34.40;;;14.60;99.90;;;;;;5047703;28;20041;-78
2024/03/16 08:12:39;;;;;;;34.45;32.70;;;14.70;99.90;;;;;;5033598;28;20033;-77
2024/03/16 08:15:06;;;;;;;50.33;46.67;;;14.80;99.90;;;;;;5032551;28;20036;-79
2024/03/16 08:17:32;;;;;;;32.38;30.85;;;14.90;99.90;;;;;;5048837;28;20037;-79
2024/03/16 08:19:58;;;;;;;35.17;33.53;;;15.00;99.90;;;;;;5048385;28;20046;-79
2024/03/16 08:22:24;;;;;;;42.03;40.03;;;14.90;99.90;;;;;;5031239;28;20410;-78
2024/03/16 08:24:50;;;;;;;48.80;46.50;;;14.90;99.90;;;;;;5019488;28;20026;-80
2024/03/16 08:27:17;;;;;;;55.10;52.50;;;14.90;99.90;;;;;;5026759;28;20034;-80
2024/03/16 08:29:43;;;;;;;66.95;63.78;;;15.00;99.90;;;;;;5029551;28;20034;-79
2024/03/16 08:32:11;;;;;;;98.68;94.00;;;15.00;99.90;;;;;;5032233;28;20402;-79
2024/03/16 08:34:37;;;;;;;95.85;91.32;;;15.00;99.90;;;;;;5043838;28;20037;-80
2024/03/16 08:37:04;;;;;;;383.45;361.92;;;15.00;99.90;;;;;;5036667;28;20034;-80
2024/03/16 08:39:31;;;;;;;84.75;79.72;;;15.10;99.90;;;;;;5054799;28;20041;-77
2024/03/16 08:41:57;;;;;;;48.03;45.78;;;15.10;99.90;;;;;;5033390;28;20057;-76
2024/03/16 08:44:23;;;;;;;37.60;35.85;;;15.20;99.90;;;;;;5037990;28;20046;-77
2024/03/16 08:46:49;;;;;;;40.25;37.63;;;15.20;99.90;;;;;;5040742;28;20037;-75
2024/03/16 08:49:15;;;;;;;34.05;32.45;;;15.30;99.90;;;;;;5056437;28;20402;-76
2024/03/16 08:51:41;;;;;;;32.88;31.33;;;15.40;99.90;;;;;;5039621;28;20038;-75
2024/03/16 08:54:08;;;;;;;34.13;32.53;;;15.40;99.90;;;;;;5032962;28;20048;-75
2024/03/16 08:56:34;;;;;;;41.10;39.20;;;15.40;99.90;;;;;;5032051;28;20376;-75
2024/03/16 08:59:03;;;;;;;30.35;28.95;;;15.50;99.90;;;;;;5032464;28;20048;-75
2024/03/16 09:01:29;;;;;;;35.58;33.80;;;15.50;99.90;;;;;;5030671;28;20048;-75
2024/03/16 09:03:55;;;;;;;58.42;55.65;;;15.50;99.90;;;;;;5032135;28;20607;-74
2024/03/16 09:06:21;;;;;;;90.30;86.03;;;15.40;99.90;;;;;;5030074;28;20044;-75
2024/03/16 09:08:47;;;;;;;75.13;70.53;;;15.50;99.90;;;;;;5046792;28;20394;-75
2024/03/16 09:11:13;;;;;;;55.72;53.10;;;15.50;99.90;;;;;;5031237;28;20537;-72
2024/03/16 09:13:39;;;;;;;74.32;70.80;;;15.60;99.90;;;;;;5030639;28;20030;-72
2024/03/16 09:16:06;;;;;;;39.63;37.78;;;15.60;99.90;;;;;;5034958;28;20398;-71
2024/03/16 09:18:35;;;;;;;30.13;28.73;;;15.70;99.90;;;;;;5041698;28;20037;-70
2024/03/16 09:21:01;;;;;;;35.85;34.17;;;15.70;99.90;;;;;;5032856;28;20029;-71
2024/03/16 09:23:28;;;;;;;30.95;29.52;;;15.80;99.90;;;;;;5032274;28;20041;-71
2024/03/16 09:25:54;;;;;;;33.00;31.48;;;15.80;99.90;;;;;;5032215;28;20053;-71
2024/03/16 09:28:21;;;;;;;42.03;40.03;;;15.90;99.90;;;;;;5064372;28;20041;-70
2024/03/16 09:30:48;;;;;;;33.78;32.20;;;15.90;99.90;;;;;;5039793;28;20410;-70
2024/03/16 09:33:15;;;;;;;31.75;30.27;;;16.00;99.90;;;;;;5035957;28;20045;-68
2024/03/16 09:35:42;;;;;;;79.68;75.93;;;16.10;99.90;;;;;;5042307;28;20041;-69
2024/03/16 09:38:09;;;;;;;40.75;38.85;;;16.10;99.90;;;;;;5032789;28;20037;-69
2024/03/16 09:40:45;;;;;;;90.32;86.03;;;16.10;99.90;;;;;;5032757;28;20044;-70
2024/03/16 09:43:11;;;;;;;52.08;49.58;;;16.10;99.90;;;;;;5031374;28;20402;-70
2024/03/16 09:45:38;;;;;;;37.25;35.50;;;16.10;99.90;;;;;;5039095;28;20054;-70
2024/03/16 09:48:05;;;;;;;42.08;40.08;;;16.10;99.90;;;;;;5074133;28;20047;-72
2024/03/16 09:50:31;;;;;;;40.88;38.92;;;16.10;99.90;;;;;;5069826;28;20481;-72
2024/03/16 09:52:57;;;;;;;50.13;47.55;;;16.20;99.90;;;;;;5065783;28;20028;-74
2024/03/16 09:55:25;;;;;;;50.17;47.80;;;16.20;99.90;;;;;;5046854;28;20042;-73
2024/03/16 09:57:52;;;;;;;65.82;62.72;;;16.20;99.90;;;;;;5051558;28;20045;-73
2024/03/16 10:00:18;;;;;;;38.58;36.75;;;16.30;99.90;;;;;;5050218;28;20048;-73
2024/03/16 10:02:44;;;;;;;26.50;25.27;;;16.40;99.90;;;;;;5031726;28;20045;-73
2024/03/16 10:05:13;;;;;;;29.30;27.92;;;16.40;99.90;;;;;;5064300;28;20064;-73
2024/03/16 10:07:39;;;;;;;28.58;27.25;;;16.40;99.90;;;;;;5035493;28;20033;-68
2024/03/16 10:10:10;;;;;;;88.55;83.75;;;16.40;99.90;;;;;;5033429;28;20465;-70
2024/03/16 10:12:46;;;;;;;55.30;52.65;;;16.40;99.90;;;;;;5035728;28;20036;-69
2024/03/16 10:15:15;;;;;;;37.70;34.85;;;16.40;99.90;;;;;;5036609;28;20037;-69
2024/03/16 10:17:42;;;;;;;31.38;29.88;;;16.40;99.90;;;;;;5030589;28;20030;-69
2024/03/16 10:20:16;;;;;;;36.97;35.25;;;16.40;99.90;;;;;;5016228;28;20045;-70
2024/03/16 10:22:50;;;;;;;1999.90;999.90;;;16.60;99.90;;;;;;5049327;28;20034;-70
2024/03/16 10:25:17;;;;;;;1999.90;999.90;;;16.80;99.90;;;;;;5040658;28;20057;-71
2024/03/16 10:27:44;;;;;;;1999.90;999.90;;;17.00;99.90;;;;;;5053123;28;20045;-73
2024/03/16 10:30:17;;;;;;;1999.90;999.90;;;17.10;99.90;;;;;;5039838;28;20417;-72
2024/03/16 10:32:49;;;;;;;1999.90;999.90;;;17.30;99.90;;;;;;5035185;28;20029;-72
2024/03/16 10:35:18;;;;;;;1999.90;999.90;;;17.50;99.90;;;;;;5050535;28;20030;-72
2024/03/16 10:37:45;;;;;;;1999.90;999.90;;;17.60;99.90;;;;;;5036329;28;20052;-71
2024/03/16 10:40:16;;;;;;;1999.90;999.90;;;17.80;99.90;;;;;;5031745;28;20025;-72
2024/03/16 10:42:47;;;;;;;1999.90;999.90;;;17.90;99.90;;;;;;5032836;28;20033;-72
2024/03/16 10:45:20;;;;;;;1999.90;999.90;;;18.00;99.90;;;;;;5050506;28;20046;-72
2024/03/16 10:47:53;;;;;;;1999.90;999.90;;;18.00;99.90;;;;;;5068677;28;20045;-72
2024/03/16 10:50:27;;;;;;;1999.90;999.90;;;18.20;99.90;;;;;;5054849;28;20048;-71
2024/03/16 10:52:53;;;;;;;1999.90;999.90;;;18.30;99.90;;;;;;5054606;28;20048;-72
2024/03/16 10:55:23;;;;;;;1999.90;999.90;;;18.30;99.90;;;;;;5069151;28;20034;-72
2024/03/16 10:57:50;;;;;;;1999.90;999.90;;;18.30;99.90;;;;;;5068687;28;20355;-71
2024/03/16 11:00:37;;;;;;;1999.90;999.90;;;18.40;99.90;;;;;;5054831;28;20033;-71
2024/03/16 11:03:08;;;;;;;1999.90;999.90;;;18.60;99.90;;;;;;5075870;28;20051;-71
2024/03/16 11:05:35;;;;;;;1999.90;999.90;;;18.70;99.90;;;;;;5054669;28;20371;-71
2024/03/16 11:08:11;;;;;;;1999.90;999.90;;;18.80;99.90;;;;;;5055227;28;20037;-71
2024/03/16 11:10:42;;;;;;;1999.90;999.90;;;18.90;99.90;;;;;;5054372;28;20328;-71
2024/03/16 11:13:15;;;;;;;1999.90;999.90;;;19.00;99.90;;;;;;5054704;28;20044;-70
2024/03/16 11:15:41;;;;;;;1999.90;999.90;;;19.00;99.90;;;;;;5068110;28;20021;-72
2024/03/16 11:18:16;;;;;;;1999.90;999.90;;;19.10;99.90;;;;;;5054671;28;20037;-73
2024/03/16 11:20:53;;;;;;;1999.90;999.90;;;19.20;99.90;;;;;;5040664;28;20033;-73
2024/03/16 11:23:27;;;;;;;1999.90;999.90;;;19.30;99.90;;;;;;5053513;28;20033;-73
2024/03/16 11:25:53;;;;;;;1999.90;999.90;;;19.40;99.90;;;;;;5051518;28;20375;-73
2024/03/16 11:28:19;;;;;;;1999.90;999.90;;;19.50;99.90;;;;;;5037065;28;20033;-73
2024/03/16 11:30:48;;;;;;;1999.90;999.90;;;19.60;99.90;;;;;;5054038;28;20032;-73
2024/03/16 11:33:18;;;;;;;1999.90;999.90;;;19.70;99.90;;;;;;5038823;28;20032;-75
2024/03/16 11:35:44;;;;;;;1999.90;999.90;;;19.70;99.90;;;;;;5052778;28;20045;-72
2024/03/16 11:38:11;;;;;;;1999.90;999.90;;;19.80;99.90;;;;;;5053897;28;20036;-72
2024/03/16 11:40:40;;;;;;;1999.90;999.90;;;20.00;99.90;;;;;;5052544;28;20028;-72
2024/03/16 11:43:12;;;;;;;1999.90;999.90;;;19.90;99.90;;;;;;5053357;28;20056;-72
2024/03/16 11:45:39;;;;;;;1999.90;999.90;;;19.90;99.90;;;;;;5046926;28;20398;-72
2024/03/16 11:48:07;;;;;;;1999.90;999.90;;;19.90;99.90;;;;;;5049213;28;20066;-72
2024/03/16 11:50:34;;;;;;;1999.90;999.90;;;19.90;99.90;;;;;;5033419;28;20501;-72
2024/03/16 11:53:02;;;;;;;1999.90;999.90;;;19.90;99.90;;;;;;5033079;28;20064;-72
2024/03/16 11:55:32;;;;;;;1999.90;999.90;;;19.70;99.90;;;;;;5032974;28;20521;-73
2024/03/16 11:58:00;;;;;;;1999.90;999.90;;;19.50;99.90;;;;;;5033897;28;20049;-73
2024/03/16 12:00:30;;;;;;;1999.90;999.90;;;19.40;99.90;;;;;;5032257;28;20025;-72
2024/03/16 12:02:57;;;;;;;1999.90;999.90;;;19.40;99.90;;;;;;5033100;28;20038;-72
2024/03/16 12:05:23;;;;;;;1999.90;999.90;;;19.40;99.90;;;;;;5032925;28;20033;-72
2024/03/16 12:07:49;;;;;;;1999.90;999.90;;;19.30;99.90;;;;;;5049181;28;20030;-72
2024/03/16 12:10:15;;;;;;;1999.90;999.90;;;19.30;99.90;;;;;;5047431;28;20046;-72
2024/03/16 12:12:41;;;;;;;1999.90;999.90;;;19.30;99.90;;;;;;5032431;28;20378;-72
2024/03/16 12:15:14;;;;;;;1999.90;999.90;;;19.30;99.90;;;;;;5033521;28;20033;-72
2024/03/16 12:17:44;;;;;;;1999.90;999.90;;;19.30;99.90;;;;;;5033275;28;20394;-72
2024/03/16 12:20:16;;;;;;;1999.90;999.90;;;19.20;99.90;;;;;;5048179;28;20036;-72
2024/03/16 12:22:48;;;;;;;1999.90;999.90;;;19.30;99.90;;;;;;5013885;28;20372;-72
2024/03/16 12:25:15;;;;;;;1999.90;999.90;;;19.30;99.90;;;;;;5012328;28;20041;-72